Time;durP1;ratioP1;P1;durP2;ratioP2;P2;SDS_P1;SDS_P2;PMS_P1;PMS_P2;Temp;Humidity;BMP_temperature;BMP_pressure;BME280_temperature;BME280_humidity;BME280_pressure;Samples;Min_cycle;Max_cycle;Signal;HPM_P1;HPM_P2
2023/02/09 00:00:06;;;;;;;4.13;2.40;;;2.70;99.90;;;;;;4984203;28;20707;-73
2023/02/09 00:02:36;;;;;;;10.43;3.17;;;2.50;99.90;;;;;;4965788;28;20178;-73
2023/02/09 00:05:02;;;;;;;8.20;3.50;;;2.50;99.90;;;;;;4983633;28;20189;-73
2023/02/09 00:07:28;;;;;;;10.43;3.33;;;2.50;99.90;;;;;;4981739;28;20196;-73
2023/02/09 00:09:54;;;;;;;10.00;4.20;;;2.50;99.90;;;;;;4982901;28;20189;-73
2023/02/09 00:15:06;;;;;;;6.40;2.83;;;2.40;99.90;;;;;;4984954;28;20190;-73
2023/02/09 00:17:34;;;;;;;5.43;3.00;;;2.40;99.90;;;;;;4984182;28;20177;-73
2023/02/09 00:20:06;;;;;;;9.73;4.60;;;2.40;99.90;;;;;;4984983;28;20209;-73
2023/02/09 00:22:32;;;;;;;13.57;6.10;;;2.40;99.90;;;;;;4983031;28;20181;-73
2023/02/09 00:24:59;;;;;;;24.47;8.67;;;2.30;99.90;;;;;;4981712;28;20222;-73
2023/02/09 00:27:25;;;;;;;24.47;8.20;;;2.20;99.90;;;;;;4981968;28;20532;-73
2023/02/09 00:29:51;;;;;;;18.10;7.17;;;2.20;99.90;;;;;;4988724;28;20192;-73
2023/02/09 00:32:17;;;;;;;7.40;4.00;;;2.20;99.90;;;;;;4983149;28;20193;-73
2023/02/09 00:34:43;;;;;;;9.23;3.70;;;2.20;99.90;;;;;;4983206;28;20247;-73
2023/02/09 00:37:09;;;;;;;6.63;2.90;;;2.10;99.90;;;;;;4982157;28;20189;-73
2023/02/09 00:39:36;;;;;;;9.80;3.73;;;2.10;99.90;;;;;;4962340;28;20341;-73
2023/02/09 00:42:05;;;;;;;13.80;5.50;;;2.10;99.90;;;;;;4979945;28;20184;-73
2023/02/09 00:44:37;;;;;;;15.77;5.97;;;2.10;99.90;;;;;;4984837;28;20196;-73
2023/02/09 00:47:04;;;;;;;10.67;5.30;;;2.20;99.90;;;;;;4993777;28;20186;-73
2023/02/09 00:49:31;;;;;;;14.47;5.33;;;2.20;99.90;;;;;;4980995;28;20213;-73
2023/02/09 00:51:57;;;;;;;11.67;4.43;;;2.10;99.90;;;;;;4978602;28;20181;-73
2023/02/09 00:54:24;;;;;;;10.27;4.13;;;2.20;99.90;;;;;;4983231;28;20184;-73
2023/02/09 00:56:50;;;;;;;9.03;3.57;;;2.20;99.90;;;;;;4982849;28;20510;-73
2023/02/09 00:59:17;;;;;;;13.77;4.27;;;2.20;99.90;;;;;;4978032;28;20185;-73
2023/02/09 01:01:43;;;;;;;9.00;3.90;;;2.20;99.90;;;;;;4978894;28;20297;-72
2023/02/09 01:04:10;;;;;;;10.20;4.03;;;2.10;99.90;;;;;;4981001;28;20678;-72
2023/02/09 01:06:36;;;;;;;11.87;3.97;;;2.10;99.90;;;;;;4977562;28;20781;-72
2023/02/09 01:09:02;;;;;;;7.37;4.07;;;2.10;99.90;;;;;;4981902;28;20208;-72
2023/02/09 01:11:29;;;;;;;8.57;4.27;;;2.10;99.90;;;;;;4980320;28;20181;-72
2023/02/09 01:13:58;;;;;;;6.57;3.20;;;2.10;99.90;;;;;;4981490;28;20281;-72
2023/02/09 01:16:27;;;;;;;6.20;3.07;;;2.20;99.90;;;;;;4978015;28;21741;-72
2023/02/09 01:18:54;;;;;;;5.80;2.37;;;2.30;99.90;;;;;;4979907;28;20590;-72
2023/02/09 01:21:21;;;;;;;5.63;2.20;;;2.30;99.90;;;;;;4978319;28;20360;-72
2023/02/09 01:23:49;;;;;;;3.70;1.90;;;2.40;99.90;;;;;;4978953;28;20536;-72
2023/02/09 01:26:16;;;;;;;7.20;2.10;;;2.40;99.90;;;;;;4982026;28;20193;-73
2023/02/09 01:28:43;;;;;;;6.67;2.20;;;2.40;99.90;;;;;;4980276;28;20729;-72
2023/02/09 01:31:36;;;;;;;6.93;2.30;;;2.30;99.90;;;;;;4978271;28;20217;-72
2023/02/09 01:34:03;;;;;;;6.93;2.30;;;2.20;99.90;;;;;;4980378;28;20212;-72
2023/02/09 01:36:32;;;;;;;3.93;1.83;;;2.30;99.90;;;;;;4980115;28;20189;-72
2023/02/09 01:39:00;;;;;;;4.50;2.10;;;2.30;99.90;;;;;;4981628;28;20201;-72
2023/02/09 01:41:27;;;;;;;5.70;2.87;;;2.20;99.90;;;;;;4983041;28;20198;-72
2023/02/09 01:44:00;;;;;;;16.97;5.47;;;2.10;99.90;;;;;;4981103;28;20267;-72
2023/02/09 01:46:30;;;;;;;15.63;6.40;;;2.00;99.90;;;;;;4983372;28;20192;-72
2023/02/09 01:49:14;;;;;;;9.67;3.63;;;2.00;99.90;;;;;;4998635;28;20216;-72
2023/02/09 01:52:06;;;;;;;13.00;5.13;;;1.90;99.90;;;;;;4976225;28;20648;-72
2023/02/09 01:54:47;;;;;;;13.13;4.93;;;1.80;99.90;;;;;;4984019;28;20680;-72
2023/02/09 01:57:21;;;;;;;14.90;4.80;;;1.70;99.90;;;;;;4976477;28;20638;-72
2023/02/09 01:59:55;;;;;;;18.13;5.80;;;1.60;99.90;;;;;;4987299;28;21309;-72
2023/02/09 02:02:22;;;;;;;7.10;2.67;;;1.70;99.90;;;;;;4988218;28;20182;-73
2023/02/09 02:04:50;;;;;;;19.03;6.50;;;1.70;99.90;;;;;;4987471;28;20204;-69
2023/02/09 02:07:40;;;;;;;23.43;6.90;;;1.80;99.90;;;;;;4983709;28;20213;-69
2023/02/09 02:10:07;;;;;;;5.80;2.77;;;1.80;99.90;;;;;;4984249;28;20213;-69
2023/02/09 02:12:35;;;;;;;4.50;2.00;;;1.70;99.90;;;;;;4985072;28;20213;-69
2023/02/09 02:15:01;;;;;;;3.13;1.37;;;1.80;99.90;;;;;;4985159;28;20268;-69
2023/02/09 02:17:54;;;;;;;5.30;1.70;;;1.80;99.90;;;;;;4981410;28;20296;-69
2023/02/09 02:20:48;;;;;;;4.30;1.87;;;1.70;99.90;;;;;;4981974;28;20202;-69
2023/02/09 02:23:29;;;;;;;2.63;1.60;;;1.80;99.90;;;;;;4980777;28;20209;-69
2023/02/09 02:26:30;;;;;;;4.43;1.50;;;1.80;99.90;;;;;;4983688;28;20758;-69
2023/02/09 02:29:29;;;;;;;11.10;4.03;;;1.70;99.90;;;;;;4942992;29;20190;-69
2023/02/09 02:32:23;;;;;;;10.93;4.60;;;1.60;99.90;;;;;;4967100;28;20926;-69
2023/02/09 02:35:10;;;;;;;15.37;4.37;;;1.60;99.90;;;;;;4985752;28;20221;-69
2023/02/09 02:37:56;;;;;;;11.63;4.30;;;1.50;99.90;;;;;;4984476;28;20215;-69
2023/02/09 02:40:45;;;;;;;8.33;3.10;;;1.60;99.90;;;;;;4982774;28;20961;-69
2023/02/09 02:43:54;;;;;;;4.00;1.93;;;1.60;99.90;;;;;;4986385;28;20220;-69
2023/02/09 02:46:42;;;;;;;9.30;1.50;;;1.70;99.90;;;;;;4975243;28;20223;-69
2023/02/09 02:49:30;;;;;;;3.60;1.73;;;1.90;99.90;;;;;;4982251;28;20220;-69
2023/02/09 02:52:04;;;;;;;6.77;1.97;;;2.20;99.90;;;;;;4982150;28;20284;-69
2023/02/09 02:54:38;;;;;;;5.67;2.17;;;2.30;99.90;;;;;;4983528;28;20182;-69
2023/02/09 02:57:28;;;;;;;7.53;1.50;;;2.50;99.90;;;;;;4980025;28;20224;-69
2023/02/09 03:00:02;;;;;;;3.40;1.90;;;2.60;99.90;;;;;;4984703;28;20245;-68
2023/02/09 03:02:49;;;;;;;4.00;1.80;;;2.70;99.90;;;;;;4987322;28;20182;-69
2023/02/09 03:05:21;;;;;;;3.23;1.17;;;2.70;99.90;;;;;;4980070;28;20186;-69
2023/02/09 03:07:48;;;;;;;2.27;1.30;;;2.80;99.90;;;;;;4975961;28;20225;-69
2023/02/09 03:10:35;;;;;;;2.87;1.40;;;2.90;99.90;;;;;;4983735;28;20693;-69
2023/02/09 03:13:36;;;;;;;4.93;1.90;;;2.90;99.90;;;;;;4984768;28;20208;-69
2023/02/09 03:16:21;;;;;;;6.63;1.63;;;2.90;99.90;;;;;;4988318;28;20662;-69
2023/02/09 03:19:10;;;;;;;3.60;1.70;;;2.90;99.90;;;;;;4984700;28;20198;-69
2023/02/09 03:21:54;;;;;;;5.37;1.60;;;2.90;99.90;;;;;;4982692;28;20194;-69
2023/02/09 03:24:29;;;;;;;5.23;2.57;;;2.90;99.90;;;;;;4973547;28;20198;-69
2023/02/09 03:27:12;;;;;;;5.10;2.77;;;3.00;99.90;;;;;;4985177;28;20639;-69
2023/02/09 03:29:42;;;;;;;6.33;2.70;;;3.00;99.90;;;;;;4978254;28;20652;-69
2023/02/09 03:32:08;;;;;;;6.70;2.90;;;2.80;99.90;;;;;;4983318;28;20185;-69
2023/02/09 03:34:35;;;;;;;5.40;1.97;;;2.50;99.90;;;;;;4983010;28;20604;-69
2023/02/09 03:37:01;;;;;;;2.73;1.40;;;2.00;99.90;;;;;;4984918;28;20191;-69
2023/02/09 03:39:28;;;;;;;4.40;1.50;;;1.60;99.90;;;;;;4981372;28;20181;-69
2023/02/09 03:41:54;;;;;;;2.33;1.27;;;1.80;99.90;;;;;;4964891;28;20637;-68
2023/02/09 03:44:26;;;;;;;2.30;1.30;;;1.90;99.90;;;;;;4983265;28;20551;-69
2023/02/09 03:47:06;;;;;;;5.07;1.47;;;2.00;99.90;;;;;;4981411;28;20193;-69
2023/02/09 03:49:38;;;;;;;3.17;1.40;;;2.00;99.90;;;;;;4981813;28;20184;-69
2023/02/09 03:52:10;;;;;;;4.73;1.70;;;2.00;99.90;;;;;;4981337;28;20237;-69
2023/02/09 03:54:37;;;;;;;3.72;2.00;;;1.90;99.90;;;;;;4983050;28;20422;-69
2023/02/09 03:57:04;;;;;;;4.60;2.13;;;2.00;99.90;;;;;;4987672;28;20996;-69
2023/02/09 03:59:34;;;;;;;3.22;1.90;;;2.10;99.90;;;;;;4980004;28;20428;-69
2023/02/09 04:02:01;;;;;;;4.95;2.00;;;2.20;99.90;;;;;;4983394;28;20418;-69
2023/02/09 04:04:27;;;;;;;6.63;2.13;;;2.30;99.90;;;;;;4978742;28;20781;-69
2023/02/09 04:06:54;;;;;;;2.60;2.00;;;2.30;99.90;;;;;;4987017;28;20321;-69
2023/02/09 04:09:21;;;;;;;2.63;1.97;;;2.20;99.90;;;;;;4978144;28;20197;-69
2023/02/09 04:11:48;;;;;;;1.83;1.13;;;2.20;99.90;;;;;;4967641;28;20533;-69
2023/02/09 04:14:15;;;;;;;6.93;1.30;;;2.10;99.90;;;;;;4985811;28;20225;-68
2023/02/09 04:16:41;;;;;;;2.30;1.10;;;1.90;99.90;;;;;;4981682;28;20267;-69
2023/02/09 04:19:08;;;;;;;2.17;1.33;;;1.70;99.90;;;;;;4985359;28;20201;-69
2023/02/09 04:21:36;;;;;;;4.80;2.60;;;1.50;99.90;;;;;;4978896;28;20229;-69
2023/02/09 04:24:03;;;;;;;5.43;2.83;;;1.30;99.90;;;;;;4982159;28;20188;-69
2023/02/09 04:26:29;;;;;;;19.40;10.57;;;1.10;99.90;;;;;;4972187;28;20190;-69
2023/02/09 04:28:55;;;;;;;66.43;31.10;;;0.90;99.90;;;;;;4984518;28;20190;-69
2023/02/09 04:31:22;;;;;;;50.50;22.93;;;0.90;99.90;;;;;;4978468;28;20181;-69
2023/02/09 04:33:48;;;;;;;74.60;31.33;;;0.70;99.90;;;;;;4986568;28;20274;-69
2023/02/09 04:36:14;;;;;;;47.20;19.07;;;0.60;99.90;;;;;;4983988;28;20264;-69
2023/02/09 04:38:41;;;;;;;90.57;39.17;;;0.60;99.90;;;;;;4979775;28;20534;-69
2023/02/09 04:41:07;;;;;;;57.43;27.37;;;0.60;99.90;;;;;;4964272;28;20207;-69
2023/02/09 04:43:34;;;;;;;91.90;35.97;;;0.50;99.90;;;;;;4985735;28;20185;-69
2023/02/09 04:46:00;;;;;;;98.57;38.83;;;0.50;99.90;;;;;;4981221;28;20190;-69
2023/02/09 04:48:29;;;;;;;86.13;34.23;;;0.50;99.90;;;;;;4965262;28;20854;-69
2023/02/09 04:50:55;;;;;;;120.13;40.67;;;0.40;99.90;;;;;;4978071;28;20536;-69
2023/02/09 04:53:22;;;;;;;90.30;35.40;;;0.40;99.90;;;;;;4979417;28;20659;-69
2023/02/09 04:55:50;;;;;;;83.53;32.83;;;0.40;99.90;;;;;;4981747;28;20224;-69
2023/02/09 05:01:04;;;;;;;23.73;9.83;;;0.40;99.90;;;;;;4979271;28;20983;-69
2023/02/09 05:03:30;;;;;;;24.10;11.73;;;0.40;99.90;;;;;;4982541;28;20185;-69
2023/02/09 05:06:01;;;;;;;13.90;5.73;;;0.40;99.90;;;;;;4965228;28;20663;-69
2023/02/09 05:08:28;;;;;;;9.80;4.53;;;0.60;99.90;;;;;;4979301;28;20213;-69
2023/02/09 05:10:55;;;;;;;7.43;4.27;;;0.70;99.90;;;;;;4978874;28;20195;-69
2023/02/09 05:13:24;;;;;;;5.27;3.20;;;0.80;99.90;;;;;;4981155;28;20181;-69
2023/02/09 05:15:51;;;;;;;4.90;1.47;;;0.80;99.90;;;;;;4981556;28;20236;-69
2023/02/09 05:18:18;;;;;;;2.27;1.30;;;0.80;99.90;;;;;;4981102;28;20244;-69
2023/02/09 05:20:46;;;;;;;10.30;4.33;;;0.80;99.90;;;;;;4982656;28;20324;-69
2023/02/09 05:23:13;;;;;;;12.50;4.80;;;0.80;99.90;;;;;;4980142;28;20217;-69
2023/02/09 05:25:39;;;;;;;4.47;2.23;;;0.90;99.90;;;;;;4979619;28;20835;-69
2023/02/09 05:28:06;;;;;;;4.17;2.07;;;1.10;99.90;;;;;;4979501;28;20726;-69
2023/02/09 05:30:32;;;;;;;2.53;1.60;;;1.20;99.90;;;;;;4985003;28;20583;-69
2023/02/09 05:32:59;;;;;;;2.57;1.50;;;1.30;99.90;;;;;;4981090;28;20675;-69
2023/02/09 05:35:25;;;;;;;5.30;2.70;;;1.30;99.90;;;;;;4982368;28;20276;-68
2023/02/09 05:37:51;;;;;;;3.83;1.40;;;1.40;99.90;;;;;;4963342;28;20302;-68
2023/02/09 05:40:17;;;;;;;2.80;1.27;;;1.40;99.90;;;;;;4978956;28;20210;-68
2023/02/09 05:42:43;;;;;;;1.80;1.23;;;1.30;99.90;;;;;;4978365;28;20213;-68
2023/02/09 05:45:10;;;;;;;3.93;1.30;;;1.40;99.90;;;;;;4982651;28;20185;-68
2023/02/09 05:47:36;;;;;;;2.30;1.20;;;1.60;99.90;;;;;;4980944;28;20193;-69
2023/02/09 05:50:03;;;;;;;3.00;1.27;;;1.60;99.90;;;;;;4979967;28;20316;-69
2023/02/09 05:52:29;;;;;;;2.77;1.37;;;1.70;99.90;;;;;;4979370;28;20276;-69
2023/02/09 05:54:55;;;;;;;5.03;2.10;;;2.10;99.90;;;;;;4977627;28;20202;-69
2023/02/09 05:57:21;;;;;;;4.80;2.33;;;2.20;99.90;;;;;;4981851;28;20206;-69
2023/02/09 05:59:48;;;;;;;4.00;2.03;;;2.20;99.90;;;;;;4978495;28;20236;-69
2023/02/09 06:02:14;;;;;;;5.97;1.97;;;2.30;99.90;;;;;;4976104;28;20193;-69
2023/02/09 06:04:40;;;;;;;4.37;2.40;;;2.30;99.90;;;;;;4980482;28;20305;-69
2023/02/09 06:07:06;;;;;;;5.10;2.13;;;2.40;99.90;;;;;;4981927;28;20185;-69
2023/02/09 06:09:32;;;;;;;7.30;2.90;;;2.40;99.90;;;;;;4980175;28;20209;-69
2023/02/09 06:11:59;;;;;;;7.27;3.80;;;2.50;99.90;;;;;;4976435;28;20614;-69
2023/02/09 06:14:25;;;;;;;5.10;2.37;;;2.60;99.90;;;;;;4982309;28;20213;-69
2023/02/09 06:16:51;;;;;;;4.33;2.00;;;2.60;99.90;;;;;;4981892;28;20185;-69
2023/02/09 06:19:20;;;;;;;3.40;1.60;;;2.70;99.90;;;;;;4977843;28;20683;-69
2023/02/09 06:21:47;;;;;;;3.07;1.80;;;2.50;99.90;;;;;;4979791;28;20240;-69
2023/02/09 06:24:14;;;;;;;1.60;1.30;;;2.40;99.90;;;;;;4975358;28;20244;-69
2023/02/09 06:26:41;;;;;;;5.47;1.70;;;2.40;99.90;;;;;;4979212;28;20206;-69
2023/02/09 06:29:08;;;;;;;3.87;1.70;;;2.30;99.90;;;;;;4974297;28;20193;-69
2023/02/09 06:31:36;;;;;;;4.83;1.53;;;2.30;99.90;;;;;;4977983;28;20181;-69
2023/02/09 06:34:04;;;;;;;2.10;1.20;;;2.30;99.90;;;;;;4979416;28;20201;-69
2023/02/09 06:36:31;;;;;;;4.30;1.60;;;2.40;99.90;;;;;;4982777;28;20213;-69
2023/02/09 06:38:57;;;;;;;2.87;1.20;;;2.30;99.90;;;;;;4978203;28;20213;-69
2023/02/09 06:41:23;;;;;;;1.77;1.00;;;2.40;99.90;;;;;;4980570;28;20356;-69
2023/02/09 06:43:49;;;;;;;2.93;1.40;;;2.40;99.90;;;;;;4983744;28;20193;-69
2023/02/09 06:46:16;;;;;;;2.97;1.40;;;2.40;99.90;;;;;;4983430;28;20194;-69
2023/02/09 06:48:42;;;;;;;1.80;1.37;;;2.40;99.90;;;;;;4981196;28;20655;-69
2023/02/09 06:51:10;;;;;;;1.60;1.40;;;2.40;99.90;;;;;;4981142;28;20688;-69
2023/02/09 06:53:41;;;;;;;2.63;1.43;;;2.50;99.90;;;;;;4981739;28;20200;-69
2023/02/09 06:56:09;;;;;;;2.37;1.27;;;2.50;99.90;;;;;;4978355;28;20643;-69
2023/02/09 06:58:38;;;;;;;2.70;1.27;;;2.50;99.90;;;;;;4994536;28;20190;-69
2023/02/09 07:01:10;;;;;;;3.53;1.33;;;2.50;99.90;;;;;;4983692;28;20210;-69
2023/02/09 07:03:37;;;;;;;2.80;1.37;;;2.60;99.90;;;;;;4977275;28;20236;-69
2023/02/09 07:06:15;;;;;;;3.00;1.30;;;2.70;99.90;;;;;;4974967;28;20193;-69
2023/02/09 07:08:42;;;;;;;3.27;1.57;;;2.80;99.90;;;;;;4985108;28;20618;-69
2023/02/09 07:11:14;;;;;;;4.60;1.60;;;2.70;99.90;;;;;;4987247;28;20547;-69
2023/02/09 07:13:40;;;;;;;3.53;1.30;;;2.70;99.90;;;;;;4991060;28;20181;-69
2023/02/09 07:16:10;;;;;;;1.87;1.20;;;2.80;99.90;;;;;;4983707;28;20197;-69
2023/02/09 07:18:37;;;;;;;2.17;1.40;;;2.90;99.90;;;;;;4983509;28;20543;-69
2023/02/09 07:21:11;;;;;;;5.50;1.40;;;2.90;99.90;;;;;;4983676;28;20197;-69
2023/02/09 07:23:38;;;;;;;2.33;1.37;;;3.00;99.90;;;;;;4977731;28;20224;-69
2023/02/09 07:26:10;;;;;;;7.40;1.67;;;3.00;99.90;;;;;;4981171;28;20996;-69
2023/02/09 07:28:37;;;;;;;2.20;1.40;;;3.10;99.90;;;;;;4988112;28;20610;-69
2023/02/09 07:31:06;;;;;;;2.60;1.33;;;3.00;99.90;;;;;;4999547;28;20208;-69
2023/02/09 07:33:34;;;;;;;1.80;1.17;;;3.00;99.90;;;;;;4989131;28;20276;-69
2023/02/09 07:36:06;;;;;;;4.47;1.70;;;3.10;99.90;;;;;;4987213;28;20191;-69
2023/02/09 07:38:34;;;;;;;2.97;1.40;;;3.00;99.90;;;;;;4981455;28;20276;-69
2023/02/09 07:41:03;;;;;;;1.73;1.30;;;3.00;99.90;;;;;;4985494;28;20735;-68
2023/02/09 07:43:30;;;;;;;3.77;1.60;;;3.10;99.90;;;;;;4979601;28;20189;-69
2023/02/09 07:46:03;;;;;;;4.70;1.97;;;3.30;99.90;;;;;;4978982;28;20186;-69
2023/02/09 07:48:30;;;;;;;4.67;2.27;;;3.30;99.90;;;;;;4980894;28;20211;-69
2023/02/09 07:50:57;;;;;;;4.80;2.87;;;3.30;99.90;;;;;;4981055;28;20193;-69
2023/02/09 07:53:24;;;;;;;3.90;2.57;;;3.40;99.90;;;;;;4981864;28;20189;-69
2023/02/09 07:55:51;;;;;;;11.43;2.30;;;3.50;99.90;;;;;;4971549;28;20658;-69
2023/02/09 07:58:19;;;;;;;5.43;1.97;;;3.70;99.90;;;;;;4977001;28;20267;-69
2023/02/09 08:00:47;;;;;;;4.40;2.10;;;3.80;99.90;;;;;;4981046;28;20197;-69
2023/02/09 08:03:22;;;;;;;5.87;1.90;;;3.90;99.90;;;;;;4977994;28;20182;-69
2023/02/09 08:05:52;;;;;;;4.87;1.90;;;3.90;99.90;;;;;;4984985;28;20860;-69
2023/02/09 08:08:18;;;;;;;7.27;2.10;;;3.90;99.90;;;;;;4987737;28;20240;-69
2023/02/09 08:10:45;;;;;;;2.83;1.53;;;3.90;99.90;;;;;;4978530;28;20196;-69
2023/02/09 08:13:14;;;;;;;3.30;1.80;;;4.10;99.90;;;;;;4976960;28;20192;-69
2023/02/09 08:15:50;;;;;;;3.83;1.43;;;4.30;99.90;;;;;;4974101;28;20301;-69
2023/02/09 08:18:33;;;;;;;4.70;1.60;;;4.70;99.90;;;;;;4973474;28;20723;-69
2023/02/09 08:21:00;;;;;;;3.40;1.60;;;4.70;99.90;;;;;;4974846;28;20240;-69
2023/02/09 08:23:33;;;;;;;3.23;1.50;;;4.80;99.90;;;;;;4977294;28;20193;-69
2023/02/09 08:26:08;;;;;;;4.10;1.40;;;4.90;99.90;;;;;;4980306;28;20651;-69
2023/02/09 08:28:37;;;;;;;2.83;1.90;;;5.10;99.90;;;;;;4975361;28;22351;-69
2023/02/09 08:31:03;;;;;;;4.57;1.83;;;5.20;99.90;;;;;;4976927;28;20193;-69
2023/02/09 08:33:29;;;;;;;3.30;1.77;;;5.20;99.90;;;;;;4975191;28;20185;-69
2023/02/09 08:35:56;;;;;;;5.37;1.63;;;5.40;99.90;;;;;;4985544;28;20221;-69
2023/02/09 08:38:25;;;;;;;1.90;1.40;;;5.40;99.90;;;;;;4976961;28;20189;-69
2023/02/09 08:40:51;;;;;;;2.83;1.50;;;5.30;99.90;;;;;;4980611;28;20694;-69
2023/02/09 08:43:18;;;;;;;2.33;1.57;;;5.10;99.90;;;;;;4974290;28;20213;-69
2023/02/09 08:45:44;;;;;;;3.20;1.57;;;5.20;99.90;;;;;;4977841;28;20655;-69
2023/02/09 08:48:13;;;;;;;3.37;1.63;;;5.00;99.90;;;;;;4972399;28;20189;-69
2023/02/09 08:50:39;;;;;;;4.00;2.00;;;5.10;99.90;;;;;;4980159;28;20551;-69
2023/02/09 08:53:06;;;;;;;2.67;1.70;;;5.50;99.90;;;;;;4980325;28;20276;-69
2023/02/09 08:55:37;;;;;;;2.63;1.83;;;5.70;99.90;;;;;;4979567;28;20758;-69
2023/02/09 08:58:04;;;;;;;5.67;2.00;;;5.90;99.90;;;;;;4972641;28;20212;-69
2023/02/09 09:00:31;;;;;;;2.60;1.30;;;5.80;99.90;;;;;;4974656;28;20205;-69
2023/02/09 09:02:57;;;;;;;5.50;2.13;;;5.80;99.90;;;;;;4977625;28;20582;-69
2023/02/09 09:05:23;;;;;;;5.50;1.83;;;5.60;99.90;;;;;;4978117;28;20758;-69
2023/02/09 09:07:49;;;;;;;2.50;1.43;;;5.60;99.90;;;;;;4973887;28;20843;-69
2023/02/09 09:10:17;;;;;;;2.70;1.40;;;5.70;99.90;;;;;;4968317;28;20838;-69
2023/02/09 09:12:44;;;;;;;3.93;1.40;;;6.00;99.90;;;;;;4976247;28;20602;-69
2023/02/09 09:15:10;;;;;;;4.83;2.17;;;6.20;99.90;;;;;;4967768;28;20659;-69
2023/02/09 09:17:36;;;;;;;6.13;1.80;;;6.10;99.90;;;;;;4973001;28;20190;-69
2023/02/09 09:20:04;;;;;;;2.33;1.50;;;6.20;99.90;;;;;;4978769;28;20201;-69
2023/02/09 09:22:30;;;;;;;3.13;1.67;;;6.20;99.90;;;;;;4970110;28;20707;-69
2023/02/09 09:24:56;;;;;;;3.30;1.10;;;6.00;99.90;;;;;;4981242;28;20241;-69
2023/02/09 09:27:22;;;;;;;1.83;1.10;;;6.10;99.90;;;;;;4972387;28;20205;-69
2023/02/09 09:29:48;;;;;;;2.77;1.50;;;6.30;99.90;;;;;;4978120;28;20202;-69
2023/02/09 09:32:15;;;;;;;3.60;1.83;;;6.40;99.90;;;;;;4990273;28;20182;-68
2023/02/09 09:34:41;;;;;;;3.57;1.20;;;6.20;99.90;;;;;;4978635;28;20190;-69
2023/02/09 09:37:08;;;;;;;1.90;1.20;;;6.00;99.90;;;;;;4979539;28;20217;-69
2023/02/09 09:39:34;;;;;;;6.57;1.50;;;6.00;99.90;;;;;;4976086;28;20186;-69
2023/02/09 09:42:01;;;;;;;2.80;1.27;;;6.40;99.90;;;;;;4979079;28;20280;-69
2023/02/09 09:44:42;;;;;;;1.53;1.20;;;6.50;99.90;;;;;;4978823;28;20208;-69
2023/02/09 09:47:18;;;;;;;3.07;1.30;;;6.70;99.90;;;;;;4962797;28;20220;-69
2023/02/09 09:49:46;;;;;;;5.23;1.50;;;6.70;99.90;;;;;;4984330;28;20192;-69
2023/02/09 09:52:18;;;;;;;2.57;1.60;;;6.70;99.90;;;;;;4968904;28;20186;-69
2023/02/09 09:54:44;;;;;;;3.07;1.30;;;6.60;99.90;;;;;;4989720;28;20543;-69
2023/02/09 09:57:43;;;;;;;3.17;1.30;;;6.80;99.90;;;;;;4975839;28;20547;-69
2023/02/09 10:00:25;;;;;;;2.40;1.33;;;7.00;99.90;;;;;;4966768;28;20697;-69
2023/02/09 10:02:52;;;;;;;2.33;1.57;;;7.10;99.90;;;;;;4971692;28;20673;-69
2023/02/09 10:05:26;;;;;;;2.57;1.40;;;7.50;99.90;;;;;;4973793;28;20663;-69
2023/02/09 10:08:33;;;;;;;2.83;1.10;;;7.50;99.90;;;;;;4975155;28;20300;-69
2023/02/09 10:11:07;;;;;;;2.17;1.40;;;7.30;99.90;;;;;;4989077;28;20190;-69
2023/02/09 10:13:56;;;;;;;4.90;1.43;;;7.30;99.90;;;;;;4979341;28;20252;-69
2023/02/09 10:16:29;;;;;;;2.53;1.27;;;7.70;99.90;;;;;;4993216;28;20189;-69
2023/02/09 10:19:03;;;;;;;1.40;1.10;;;7.30;99.90;;;;;;4993208;28;20190;-69
2023/02/09 10:21:35;;;;;;;1.57;1.10;;;7.30;99.90;;;;;;4973276;28;20206;-69
2023/02/09 10:24:12;;;;;;;4.90;1.23;;;7.20;99.90;;;;;;4978925;28;20186;-69
2023/02/09 10:26:41;;;;;;;3.90;1.47;;;7.10;99.90;;;;;;4993769;28;20858;-69
2023/02/09 10:29:10;;;;;;;2.33;1.37;;;7.70;99.90;;;;;;4981180;28;20200;-69
2023/02/09 10:31:49;;;;;;;1.57;1.13;;;7.80;99.90;;;;;;4979126;28;20238;-69
2023/02/09 10:34:30;;;;;;;1.43;1.03;;;8.20;99.90;;;;;;4976998;28;20198;-69
2023/02/09 10:37:25;;;;;;;2.20;1.30;;;8.20;99.90;;;;;;4991547;28;20201;-69
2023/02/09 10:40:11;;;;;;;1.70;1.17;;;8.60;99.90;;;;;;4977911;28;20194;-69
2023/02/09 10:42:59;;;;;;;5.10;1.30;;;9.20;99.90;;;;;;4986889;28;20766;-69
2023/02/09 10:45:41;;;;;;;2.90;1.30;;;9.30;99.90;;;;;;4988546;28;20180;-69
2023/02/09 10:48:13;;;;;;;2.83;1.37;;;9.60;99.90;;;;;;4965172;28;20269;-69
2023/02/09 10:51:06;;;;;;;3.33;1.33;;;9.40;99.90;;;;;;4987217;28;20189;-69
2023/02/09 10:53:36;;;;;;;2.83;1.50;;;9.70;99.90;;;;;;4983021;28;20197;-69
2023/02/09 10:56:24;;;;;;;1.87;1.23;;;10.20;99.90;;;;;;4994474;28;20201;-69
2023/02/09 10:59:00;;;;;;;3.53;1.40;;;10.50;99.90;;;;;;4986571;28;20590;-69
2023/02/09 11:01:33;;;;;;;3.77;1.30;;;11.00;99.90;;;;;;4987930;28;20212;-69
2023/02/09 11:04:24;;;;;;;3.13;1.13;;;11.20;99.90;;;;;;4980203;28;20186;-69
2023/02/09 11:07:33;;;;;;;2.60;1.43;;;11.00;99.90;;;;;;4984932;28;20758;-69
2023/02/09 11:10:04;;;;;;;2.13;1.27;;;11.20;99.90;;;;;;4976516;28;20217;-69
2023/02/09 11:12:32;;;;;;;2.63;1.53;;;11.30;99.90;;;;;;4982855;28;20201;-69
2023/02/09 11:15:00;;;;;;;2.33;1.10;;;11.10;99.90;;;;;;4986058;28;20182;-69
2023/02/09 11:17:38;;;;;;;2.33;1.43;;;11.20;99.90;;;;;;4985207;28;20189;-69
2023/02/09 11:20:34;;;;;;;2.00;1.10;;;11.10;99.90;;;;;;4980512;28;20206;-69
2023/02/09 11:23:16;;;;;;;2.60;1.30;;;10.80;99.90;;;;;;4977734;28;20198;-69
2023/02/09 11:26:27;;;;;;;6.90;1.40;;;11.50;99.90;;;;;;4975197;28;20183;-69
2023/02/09 11:29:54;;;;;;;1.67;1.20;;;11.80;99.90;;;;;;4958179;28;20224;-69
2023/02/09 11:33:02;;;;;;;3.10;1.30;;;11.70;99.90;;;;;;4934090;28;20193;-69
2023/02/09 11:36:02;;;;;;;3.40;1.13;;;10.70;99.90;;;;;;4988469;28;20328;-69
2023/02/09 11:38:51;;;;;;;2.67;1.20;;;10.20;99.90;;;;;;4993117;28;20189;-69
2023/02/09 11:44:46;;;;;;;3.57;1.40;;;10.30;99.90;;;;;;4986637;28;20777;-69
2023/02/09 11:47:29;;;;;;;1.77;1.23;;;10.20;99.90;;;;;;4994623;28;20193;-69
2023/02/09 11:50:01;;;;;;;2.03;1.30;;;10.40;99.90;;;;;;4991402;28;20275;-69
2023/02/09 11:52:50;;;;;;;2.40;1.27;;;10.50;99.90;;;;;;4987397;28;20180;-69
2023/02/09 11:55:22;;;;;;;2.10;1.27;;;10.60;99.90;;;;;;4985679;28;20275;-69
2023/02/09 11:58:18;;;;;;;2.07;1.10;;;10.50;99.90;;;;;;4988994;28;20256;-69
2023/02/09 12:00:58;;;;;;;2.10;1.40;;;10.40;99.90;;;;;;4945315;28;20452;-69
2023/02/09 12:03:25;;;;;;;3.43;1.50;;;10.30;99.90;;;;;;4975150;28;20192;-69
2023/02/09 12:05:53;;;;;;;3.10;1.33;;;10.20;99.90;;;;;;4986291;28;20555;-69
2023/02/09 12:09:02;;;;;;;4.20;1.77;;;9.80;99.90;;;;;;4982302;28;20213;-69
2023/02/09 12:11:48;;;;;;;4.83;1.53;;;9.40;99.90;;;;;;4976236;28;20201;-69
2023/02/09 12:14:45;;;;;;;2.53;1.40;;;9.50;99.90;;;;;;4997137;28;20247;-69
2023/02/09 12:17:45;;;;;;;4.27;1.23;;;9.90;99.90;;;;;;4979553;28;20198;-69
2023/02/09 12:20:40;;;;;;;2.20;1.40;;;9.80;99.90;;;;;;4963104;28;20264;-69
2023/02/09 12:23:38;;;;;;;2.57;1.50;;;10.00;99.90;;;;;;4980346;28;20229;-69
2023/02/09 12:26:52;;;;;;;1.60;1.30;;;10.40;99.90;;;;;;4984185;28;20696;-69
2023/02/09 12:29:39;;;;;;;5.50;1.60;;;10.30;99.90;;;;;;4990638;28;20224;-69
2023/02/09 12:32:06;;;;;;;6.57;1.50;;;10.40;99.90;;;;;;4988416;28;20855;-69
2023/02/09 12:34:48;;;;;;;4.17;1.40;;;10.30;99.90;;;;;;4966402;28;20196;-69
2023/02/09 12:37:22;;;;;;;2.83;1.20;;;10.00;99.90;;;;;;4989797;28;20239;-69
2023/02/09 12:40:06;;;;;;;3.10;1.77;;;10.10;99.90;;;;;;4984874;28;20201;-69
2023/02/09 12:42:51;;;;;;;3.20;1.57;;;10.10;99.90;;;;;;4988860;28;20186;-69
2023/02/09 12:45:40;;;;;;;2.27;1.50;;;10.10;99.90;;;;;;4980890;28;20735;-69
2023/02/09 12:48:06;;;;;;;4.00;1.40;;;10.10;99.90;;;;;;4978843;28;20749;-69
2023/02/09 12:50:42;;;;;;;1.60;1.30;;;10.10;99.90;;;;;;4979580;28;20174;-69
2023/02/09 12:53:25;;;;;;;4.07;1.30;;;10.20;99.90;;;;;;4979819;28;20185;-69
2023/02/09 12:56:08;;;;;;;2.23;1.37;;;10.20;99.90;;;;;;4973521;28;20186;-69
2023/02/09 12:58:38;;;;;;;2.10;1.33;;;10.20;99.90;;;;;;4983990;28;20698;-69
2023/02/09 13:01:05;;;;;;;2.00;1.30;;;9.90;99.90;;;;;;4982210;28;20217;-69
2023/02/09 13:03:50;;;;;;;2.80;1.47;;;10.10;99.90;;;;;;4987320;28;20208;-69
2023/02/09 13:06:37;;;;;;;2.27;1.43;;;9.90;99.90;;;;;;4976908;28;20193;-69
2023/02/09 13:09:13;;;;;;;3.33;1.50;;;9.80;99.90;;;;;;4983625;28;20200;-69
2023/02/09 13:11:48;;;;;;;4.30;1.50;;;9.60;99.90;;;;;;4977870;28;20944;-69
2023/02/09 13:14:17;;;;;;;1.70;1.33;;;9.60;99.90;;;;;;4980443;28;22224;-69
2023/02/09 13:17:09;;;;;;;4.53;1.70;;;9.60;99.90;;;;;;4978367;28;20193;-69
2023/02/09 13:20:27;;;;;;;3.47;1.40;;;9.70;99.90;;;;;;5000580;28;20893;-69
2023/02/09 13:23:12;;;;;;;2.90;1.87;;;9.70;99.90;;;;;;4981241;28;20200;-69
2023/02/09 13:25:39;;;;;;;3.33;1.60;;;9.60;99.90;;;;;;4982449;28;20209;-69
2023/02/09 13:28:25;;;;;;;3.37;1.60;;;9.50;99.90;;;;;;4976504;28;20202;-69
2023/02/09 13:30:52;;;;;;;2.67;1.47;;;9.50;99.90;;;;;;4974597;28;20193;-69
2023/02/09 13:33:33;;;;;;;3.67;1.90;;;9.40;99.90;;;;;;4975896;28;20197;-70